sensor_id;sensor_type;location;lat;lon;timestamp;P1;durP1;ratioP1;P2;durP2;ratioP2
77953;SDS011;67151;52.544;6.034;2023-04-07T00:00:10;3.1;;;1.6;;
77953;SDS011;67151;52.544;6.034;2023-04-07T00:00:25;3.3;;;1.6;;
77953;SDS011;67151;52.544;6.034;2023-04-07T00:00:39;3.6;;;1.6;;
77953;SDS011;67151;52.544;6.034;2023-04-07T00:00:54;3.3;;;1.5;;
77953;SDS011;67151;52.544;6.034;2023-04-07T00:01:09;3.1;;;1.4;;
77953;SDS011;67151;52.544;6.034;2023-04-07T00:01:24;3;;;1.4;;
77953;SDS011;67151;52.544;6.034;2023-04-07T00:01:39;2.7;;;1.5;;
77953;SDS011;67151;52.544;6.034;2023-04-07T00:01:54;3.3;;;1.4;;
77953;SDS011;67151;52.544;6.034;2023-04-07T00:02:10;3.7;;;1.7;;
77953;SDS011;67151;52.544;6.034;2023-04-07T00:02:24;2.9;;;1.7;;
77953;SDS011;67151;52.544;6.034;2023-04-07T00:02:39;2.1;;;1.3;;
77953;SDS011;67151;52.544;6.034;2023-04-07T00:02:54;2.6;;;1.3;;
77953;SDS011;67151;52.544;6.034;2023-04-07T00:03:09;2.5;;;1.4;;
77953;SDS011;67151;52.544;6.034;2023-04-07T00:03:24;2.1;;;1.4;;
77953;SDS011;67151;52.544;6.034;2023-04-07T00:03:39;1.9;;;1.3;;
77953;SDS011;67151;52.544;6.034;2023-04-07T00:03:54;2.3;;;1.3;;
77953;SDS011;67151;52.544;6.034;2023-04-07T00:04:09;2.5;;;1.4;;
77953;SDS011;67151;52.544;6.034;2023-04-07T00:04:24;2.2;;;1.2;;
77953;SDS011;67151;52.544;6.034;2023-04-07T00:04:39;2.2;;;1.2;;
77953;SDS011;67151;52.544;6.034;2023-04-07T00:04:54;2.1;;;1.2;;
77953;SDS011;67151;52.544;6.034;2023-04-07T00:05:09;2;;;1.2;;
77953;SDS011;67151;52.544;6.034;2023-04-07T00:05:24;1.9;;;1.2;;
77953;SDS011;67151;52.544;6.034;2023-04-07T00:05:39;2.7;;;1.2;;
77953;SDS011;67151;52.544;6.034;2023-04-07T00:05:54;2.7;;;1.2;;
77953;SDS011;67151;52.544;6.034;2023-04-07T00:06:09;2.4;;;1.4;;
77953;SDS011;67151;52.544;6.034;2023-04-07T00:06:24;3;;;1.5;;
77953;SDS011;67151;52.544;6.034;2023-04-07T00:06:39;3.1;;;1.5;;
77953;SDS011;67151;52.544;6.034;2023-04-07T00:06:54;3.5;;;1.5;;
77953;SDS011;67151;52.544;6.034;2023-04-07T00:07:10;3.5;;;1.6;;
77953;SDS011;67151;52.544;6.034;2023-04-07T00:07:24;2.8;;;1.4;;
77953;SDS011;67151;52.544;6.034;2023-04-07T00:07:39;2.2;;;1.2;;
77953;SDS011;67151;52.544;6.034;2023-04-07T00:07:54;2.8;;;1.3;;
77953;SDS011;67151;52.544;6.034;2023-04-07T00:08:09;2.9;;;1.3;;
77953;SDS011;67151;52.544;6.034;2023-04-07T00:08:24;2.3;;;1.2;;
77953;SDS011;67151;52.544;6.034;2023-04-07T00:08:39;2.5;;;1.4;;
77953;SDS011;67151;52.544;6.034;2023-04-07T00:08:54;2.1;;;1.4;;
77953;SDS011;67151;52.544;6.034;2023-04-07T00:09:09;2.1;;;1.4;;
77953;SDS011;67151;52.544;6.034;2023-04-07T00:09:24;2.4;;;1.3;;
77953;SDS011;67151;52.544;6.034;2023-04-07T00:09:39;2.2;;;1.4;;
77953;SDS011;67151;52.544;6.034;2023-04-07T00:09:54;2.5;;;1.4;;
77953;SDS011;67151;52.544;6.034;2023-04-07T00:10:09;3.3;;;1.4;;
77953;SDS011;67151;52.544;6.034;2023-04-07T00:10:24;3;;;1.4;;
77953;SDS011;67151;52.544;6.034;2023-04-07T00:10:40;3;;;1.5;;
77953;SDS011;67151;52.544;6.034;2023-04-07T00:10:54;3.2;;;1.4;;
77953;SDS011;67151;52.544;6.034;2023-04-07T00:11:09;2.7;;;1.2;;
77953;SDS011;67151;52.544;6.034;2023-04-07T00:11:24;3;;;1.4;;
77953;SDS011;67151;52.544;6.034;2023-04-07T00:11:39;3.6;;;1.7;;
77953;SDS011;67151;52.544;6.034;2023-04-07T00:11:54;3.2;;;1.5;;
77953;SDS011;67151;52.544;6.034;2023-04-07T00:12:09;2.4;;;1.4;;
77953;SDS011;67151;52.544;6.034;2023-04-07T00:12:24;2.2;;;1.3;;
77953;SDS011;67151;52.544;6.034;2023-04-07T00:12:39;2.3;;;1.2;;
77953;SDS011;67151;52.544;6.034;2023-04-07T00:12:54;2.9;;;1.3;;
77953;SDS011;67151;52.544;6.034;2023-04-07T00:13:09;2.5;;;1.3;;
77953;SDS011;67151;52.544;6.034;2023-04-07T00:13:24;2;;;1.3;;
77953;SDS011;67151;52.544;6.034;2023-04-07T00:13:39;2.9;;;1.4;;
77953;SDS011;67151;52.544;6.034;2023-04-07T00:13:54;3.2;;;1.4;;
77953;SDS011;67151;52.544;6.034;2023-04-07T00:14:09;2.8;;;1.4;;
77953;SDS011;67151;52.544;6.034;2023-04-07T00:14:24;2.9;;;1.5;;
77953;SDS011;67151;52.544;6.034;2023-04-07T00:14:39;2.3;;;1.3;;
77953;SDS011;67151;52.544;6.034;2023-04-07T00:14:54;2.4;;;1.2;;
77953;SDS011;67151;52.544;6.034;2023-04-07T00:15:09;2.9;;;1.3;;
77953;SDS011;67151;52.544;6.034;2023-04-07T00:15:24;2.7;;;1.4;;
77953;SDS011;67151;52.544;6.034;2023-04-07T00:15:39;2.2;;;1.4;;
77953;SDS011;67151;52.544;6.034;2023-04-07T00:15:54;2.5;;;1.4;;
77953;SDS011;67151;52.544;6.034;2023-04-07T00:16:09;2.9;;;1.4;;
77953;SDS011;67151;52.544;6.034;2023-04-07T00:16:24;2.2;;;1.3;;
77953;SDS011;67151;52.544;6.034;2023-04-07T00:16:39;2;;;1.3;;
77953;SDS011;67151;52.544;6.034;2023-04-07T00:16:54;2.1;;;1.3;;
77953;SDS011;67151;52.544;6.034;2023-04-07T00:17:09;2;;;1.1;;
77953;SDS011;67151;52.544;6.034;2023-04-07T00:17:24;2.3;;;1.2;;
77953;SDS011;67151;52.544;6.034;2023-04-07T00:17:39;2.4;;;1.3;;
77953;SDS011;67151;52.544;6.034;2023-04-07T00:17:54;2.2;;;1.2;;
77953;SDS011;67151;52.544;6.034;2023-04-07T00:18:09;2.5;;;1.3;;
77953;SDS011;67151;52.544;6.034;2023-04-07T00:18:24;3.1;;;1.4;;
77953;SDS011;67151;52.544;6.034;2023-04-07T00:18:39;3.5;;;1.2;;
77953;SDS011;67151;52.544;6.034;2023-04-07T00:18:54;3;;;1.3;;
77953;SDS011;67151;52.544;6.034;2023-04-07T00:19:09;2.8;;;1.4;;
77953;SDS011;67151;52.544;6.034;2023-04-07T00:19:24;2.5;;;1.3;;
77953;SDS011;67151;52.544;6.034;2023-04-07T00:19:39;2;;;1.3;;
77953;SDS011;67151;52.544;6.034;2023-04-07T00:19:54;2;;;1.3;;
77953;SDS011;67151;52.544;6.034;2023-04-07T00:20:10;2.1;;;1.2;;
77953;SDS011;67151;52.544;6.034;2023-04-07T00:20:24;2.5;;;1.4;;
77953;SDS011;67151;52.544;6.034;2023-04-07T00:20:39;2.8;;;1.4;;
77953;SDS011;67151;52.544;6.034;2023-04-07T00:20:54;2.7;;;1.3;;
77953;SDS011;67151;52.544;6.034;2023-04-07T00:21:09;2.7;;;1.4;;
77953;SDS011;67151;52.544;6.034;2023-04-07T00:21:24;2.3;;;1.3;;
77953;SDS011;67151;52.544;6.034;2023-04-07T00:21:39;2;;;1.2;;
77953;SDS011;67151;52.544;6.034;2023-04-07T00:21:54;1.8;;;1.1;;
77953;SDS011;67151;52.544;6.034;2023-04-07T00:22:09;2.3;;;1.2;;
77953;SDS011;67151;52.544;6.034;2023-04-07T00:22:24;2.7;;;1.3;;
77953;SDS011;67151;52.544;6.034;2023-04-07T00:22:39;2.1;;;1.3;;
77953;SDS011;67151;52.544;6.034;2023-04-07T00:22:54;1.9;;;1.2;;
77953;SDS011;67151;52.544;6.034;2023-04-07T00:23:09;2.1;;;1.2;;
77953;SDS011;67151;52.544;6.034;2023-04-07T00:23:24;2.7;;;1.4;;
77953;SDS011;67151;52.544;6.034;2023-04-07T00:23:39;2.6;;;1.5;;
77953;SDS011;67151;52.544;6.034;2023-04-07T00:23:54;2;;;1.4;;
77953;SDS011;67151;52.544;6.034;2023-04-07T00:24:09;2.3;;;1.5;;
77953;SDS011;67151;52.544;6.034;2023-04-07T00:24:24;2.5;;;1.4;;
77953;SDS011;67151;52.544;6.034;2023-04-07T00:24:39;2.2;;;1.2;;
77953;SDS011;67151;52.544;6.034;2023-04-07T00:24:54;2.3;;;1.1;;
77953;SDS011;67151;52.544;6.034;2023-04-07T00:25:09;2.8;;;1.3;;
77953;SDS011;67151;52.544;6.034;2023-04-07T00:25:24;2.9;;;1.3;;
77953;SDS011;67151;52.544;6.034;2023-04-07T00:25:39;3;;;1.3;;
77953;SDS011;67151;52.544;6.034;2023-04-07T00:25:54;3;;;1.3;;
77953;SDS011;67151;52.544;6.034;2023-04-07T00:26:09;2.5;;;1.3;;
77953;SDS011;67151;52.544;6.034;2023-04-07T00:26:24;2.5;;;1.4;;
77953;SDS011;67151;52.544;6.034;2023-04-07T00:26:39;2.7;;;1.4;;
77953;SDS011;67151;52.544;6.034;2023-04-07T00:26:54;2.4;;;1.2;;
77953;SDS011;67151;52.544;6.034;2023-04-07T00:27:09;2.1;;;1.2;;
77953;SDS011;67151;52.544;6.034;2023-04-07T00:27:24;1.7;;;1.2;;
77953;SDS011;67151;52.544;6.034;2023-04-07T00:27:39;1.8;;;1.3;;
77953;SDS011;67151;52.544;6.034;2023-04-07T00:27:54;2.2;;;1.3;;
77953;SDS011;67151;52.544;6.034;2023-04-07T00:28:09;2.5;;;1.3;;
77953;SDS011;67151;52.544;6.034;2023-04-07T00:28:24;2.1;;;1.2;;
77953;SDS011;67151;52.544;6.034;2023-04-07T00:28:39;1.9;;;1.2;;
77953;SDS011;67151;52.544;6.034;2023-04-07T00:28:54;1.8;;;1.2;;
77953;SDS011;67151;52.544;6.034;2023-04-07T00:29:09;2.5;;;1.3;;
77953;SDS011;67151;52.544;6.034;2023-04-07T00:29:24;2.9;;;1.4;;
77953;SDS011;67151;52.544;6.034;2023-04-07T00:29:39;2.1;;;1.4;;
77953;SDS011;67151;52.544;6.034;2023-04-07T00:29:54;2.5;;;1.2;;
77953;SDS011;67151;52.544;6.034;2023-04-07T00:30:09;3.2;;;1.4;;
77953;SDS011;67151;52.544;6.034;2023-04-07T00:30:24;2.7;;;1.4;;
77953;SDS011;67151;52.544;6.034;2023-04-07T00:30:39;2.6;;;1.3;;
77953;SDS011;67151;52.544;6.034;2023-04-07T00:30:54;2.7;;;1.3;;
77953;SDS011;67151;52.544;6.034;2023-04-07T00:31:09;2.5;;;1.3;;
77953;SDS011;67151;52.544;6.034;2023-04-07T00:31:24;2.5;;;1.2;;
77953;SDS011;67151;52.544;6.034;2023-04-07T00:31:39;2.1;;;1.2;;
77953;SDS011;67151;52.544;6.034;2023-04-07T00:31:54;2.5;;;1.2;;
77953;SDS011;67151;52.544;6.034;2023-04-07T00:32:09;2.6;;;1.2;;
77953;SDS011;67151;52.544;6.034;2023-04-07T00:32:24;2.2;;;1.2;;
77953;SDS011;67151;52.544;6.034;2023-04-07T00:32:39;2.3;;;1.3;;
77953;SDS011;67151;52.544;6.034;2023-04-07T00:32:54;2.4;;;1.3;;
77953;SDS011;67151;52.544;6.034;2023-04-07T00:33:09;3.2;;;1.4;;
77953;SDS011;67151;52.544;6.034;2023-04-07T00:33:24;3.2;;;1.3;;
77953;SDS011;67151;52.544;6.034;2023-04-07T00:33:39;2.1;;;1.1;;
77953;SDS011;67151;52.544;6.034;2023-04-07T00:33:54;1.8;;;1.1;;
77953;SDS011;67151;52.544;6.034;2023-04-07T00:34:09;2.2;;;1.4;;
77953;SDS011;67151;52.544;6.034;2023-04-07T00:34:24;3;;;1.5;;
77953;SDS011;67151;52.544;6.034;2023-04-07T00:34:39;3.5;;;1.3;;
77953;SDS011;67151;52.544;6.034;2023-04-07T00:34:54;3.4;;;1.3;;
77953;SDS011;67151;52.544;6.034;2023-04-07T00:35:09;3.7;;;1.4;;
77953;SDS011;67151;52.544;6.034;2023-04-07T00:35:24;4.2;;;1.4;;
77953;SDS011;67151;52.544;6.034;2023-04-07T00:35:39;3.9;;;1.5;;
77953;SDS011;67151;52.544;6.034;2023-04-07T00:35:54;3.1;;;1.4;;
77953;SDS011;67151;52.544;6.034;2023-04-07T00:36:09;2.5;;;1.3;;
77953;SDS011;67151;52.544;6.034;2023-04-07T00:36:24;3;;;1.2;;
77953;SDS011;67151;52.544;6.034;2023-04-07T00:36:39;2.8;;;1.4;;
77953;SDS011;67151;52.544;6.034;2023-04-07T00:36:54;2.2;;;1.5;;
77953;SDS011;67151;52.544;6.034;2023-04-07T00:37:09;2.3;;;1.4;;
77953;SDS011;67151;52.544;6.034;2023-04-07T00:37:24;2.2;;;1.3;;
77953;SDS011;67151;52.544;6.034;2023-04-07T00:37:39;2;;;1.1;;
77953;SDS011;67151;52.544;6.034;2023-04-07T00:37:54;2;;;1;;
77953;SDS011;67151;52.544;6.034;2023-04-07T00:38:09;2.5;;;1.3;;
77953;SDS011;67151;52.544;6.034;2023-04-07T00:38:24;2.4;;;1.3;;
77953;SDS011;67151;52.544;6.034;2023-04-07T00:38:39;1.9;;;1.2;;
77953;SDS011;67151;52.544;6.034;2023-04-07T00:38:54;2.4;;;1.4;;
77953;SDS011;67151;52.544;6.034;2023-04-07T00:39:09;2.3;;;1.4;;
77953;SDS011;67151;52.544;6.034;2023-04-07T00:39:24;3.1;;;1.3;;
77953;SDS011;67151;52.544;6.034;2023-04-07T00:39:39;3.5;;;1.4;;
77953;SDS011;67151;52.544;6.034;2023-04-07T00:39:54;2.4;;;1.3;;
77953;SDS011;67151;52.544;6.034;2023-04-07T00:40:09;2.7;;;1.3;;
77953;SDS011;67151;52.544;6.034;2023-04-07T00:40:24;2.6;;;1.3;;
77953;SDS011;67151;52.544;6.034;2023-04-07T00:40:39;2.2;;;1.3;;
77953;SDS011;67151;52.544;6.034;2023-04-07T00:40:56;2.5;;;1.3;;
77953;SDS011;67151;52.544;6.034;2023-04-07T00:41:09;1.9;;;1.2;;
77953;SDS011;67151;52.544;6.034;2023-04-07T00:41:24;1.9;;;1.1;;
77953;SDS011;67151;52.544;6.034;2023-04-07T00:41:39;2.6;;;1.1;;
77953;SDS011;67151;52.544;6.034;2023-04-07T00:41:54;2.8;;;1.2;;
77953;SDS011;67151;52.544;6.034;2023-04-07T00:42:09;2.6;;;1.4;;
77953;SDS011;67151;52.544;6.034;2023-04-07T00:42:24;2.4;;;1.3;;
77953;SDS011;67151;52.544;6.034;2023-04-07T00:42:39;2.5;;;1.3;;
77953;SDS011;67151;52.544;6.034;2023-04-07T00:42:54;2.5;;;1.4;;
77953;SDS011;67151;52.544;6.034;2023-04-07T00:43:09;2.9;;;1.4;;
77953;SDS011;67151;52.544;6.034;2023-04-07T00:43:24;2.8;;;1.4;;
77953;SDS011;67151;52.544;6.034;2023-04-07T00:43:39;1.9;;;1.1;;
77953;SDS011;67151;52.544;6.034;2023-04-07T00:43:54;1.8;;;1.2;;
77953;SDS011;67151;52.544;6.034;2023-04-07T00:44:09;1.8;;;1.2;;
77953;SDS011;67151;52.544;6.034;2023-04-07T00:44:24;2;;;1.3;;
77953;SDS011;67151;52.544;6.034;2023-04-07T00:44:39;2.6;;;1.3;;
77953;SDS011;67151;52.544;6.034;2023-04-07T00:44:54;2.6;;;1.1;;
77953;SDS011;67151;52.544;6.034;2023-04-07T00:45:09;2;;;1.1;;
77953;SDS011;67151;52.544;6.034;2023-04-07T00:45:24;1.9;;;1.2;;
77953;SDS011;67151;52.544;6.034;2023-04-07T00:45:39;1.8;;;1.3;;
77953;SDS011;67151;52.544;6.034;2023-04-07T00:45:54;3;;;1.4;;
77953;SDS011;67151;52.544;6.034;2023-04-07T00:46:09;3.2;;;1.5;;
77953;SDS011;67151;52.544;6.034;2023-04-07T00:46:24;2.4;;;1.3;;
77953;SDS011;67151;52.544;6.034;2023-04-07T00:46:39;2.7;;;1.2;;
77953;SDS011;67151;52.544;6.034;2023-04-07T00:46:54;2.3;;;1.4;;
77953;SDS011;67151;52.544;6.034;2023-04-07T00:47:09;2.6;;;1.3;;
77953;SDS011;67151;52.544;6.034;2023-04-07T00:47:25;2.5;;;1.3;;
77953;SDS011;67151;52.544;6.034;2023-04-07T00:47:39;1.7;;;1.2;;
77953;SDS011;67151;52.544;6.034;2023-04-07T00:47:55;1.7;;;1.2;;
77953;SDS011;67151;52.544;6.034;2023-04-07T00:48:09;2;;;1.3;;
77953;SDS011;67151;52.544;6.034;2023-04-07T00:48:24;2;;;1.2;;
77953;SDS011;67151;52.544;6.034;2023-04-07T00:48:39;1.9;;;1.1;;
77953;SDS011;67151;52.544;6.034;2023-04-07T00:48:54;2.2;;;1.3;;
77953;SDS011;67151;52.544;6.034;2023-04-07T00:49:09;2.4;;;1.3;;
77953;SDS011;67151;52.544;6.034;2023-04-07T00:49:24;2.3;;;1.3;;
77953;SDS011;67151;52.544;6.034;2023-04-07T00:49:39;2.6;;;1.4;;
77953;SDS011;67151;52.544;6.034;2023-04-07T00:49:54;2.6;;;1.3;;
77953;SDS011;67151;52.544;6.034;2023-04-07T00:50:09;2.4;;;1.2;;
77953;SDS011;67151;52.544;6.034;2023-04-07T00:50:24;2.7;;;1.2;;
77953;SDS011;67151;52.544;6.034;2023-04-07T00:50:39;2.6;;;1.3;;
77953;SDS011;67151;52.544;6.034;2023-04-07T00:50:54;2.3;;;1.3;;
77953;SDS011;67151;52.544;6.034;2023-04-07T00:51:09;2.2;;;1.2;;
77953;SDS011;67151;52.544;6.034;2023-04-07T00:51:24;2.8;;;1.3;;
77953;SDS011;67151;52.544;6.034;2023-04-07T00:51:39;3.3;;;1.3;;
77953;SDS011;67151;52.544;6.034;2023-04-07T00:51:54;2.7;;;1.3;;
77953;SDS011;67151;52.544;6.034;2023-04-07T00:52:09;1.9;;;1.3;;
77953;SDS011;67151;52.544;6.034;2023-04-07T00:52:24;1.9;;;1.4;;
77953;SDS011;67151;52.544;6.034;2023-04-07T00:52:39;2;;;1.3;;
77953;SDS011;67151;52.544;6.034;2023-04-07T00:52:54;2;;;1.1;;
77953;SDS011;67151;52.544;6.034;2023-04-07T00:53:09;2.4;;;1.1;;
77953;SDS011;67151;52.544;6.034;2023-04-07T00:53:25;2.4;;;1.4;;
77953;SDS011;67151;52.544;6.034;2023-04-07T00:53:39;1.9;;;1.3;;
77953;SDS011;67151;52.544;6.034;2023-04-07T00:53:54;1.8;;;1.1;;
77953;SDS011;67151;52.544;6.034;2023-04-07T00:54:09;2.4;;;1.3;;
77953;SDS011;67151;52.544;6.034;2023-04-07T00:54:24;2.7;;;1.3;;
77953;SDS011;67151;52.544;6.034;2023-04-07T00:54:40;2.3;;;1.1;;
77953;SDS011;67151;52.544;6.034;2023-04-07T00:54:54;2;;;1.2;;
77953;SDS011;67151;52.544;6.034;2023-04-07T00:55:09;1.8;;;1.2;;
77953;SDS011;67151;52.544;6.034;2023-04-07T00:55:24;2;;;1.3;;
77953;SDS011;67151;52.544;6.034;2023-04-07T00:55:39;2.3;;;1.4;;
77953;SDS011;67151;52.544;6.034;2023-04-07T00:55:54;2.2;;;1.4;;
77953;SDS011;67151;52.544;6.034;2023-04-07T00:56:09;2.3;;;1.3;;
77953;SDS011;67151;52.544;6.034;2023-04-07T00:56:24;2.6;;;1.4;;
77953;SDS011;67151;52.544;6.034;2023-04-07T00:56:39;2.4;;;1.3;;
77953;SDS011;67151;52.544;6.034;2023-04-07T00:56:54;2.2;;;1.3;;
77953;SDS011;67151;52.544;6.034;2023-04-07T00:57:09;1.9;;;1.3;;
77953;SDS011;67151;52.544;6.034;2023-04-07T00:57:24;1.9;;;1.2;;
77953;SDS011;67151;52.544;6.034;2023-04-07T00:57:39;2.3;;;1.4;;
77953;SDS011;67151;52.544;6.034;2023-04-07T00:57:54;2.1;;;1.3;;
77953;SDS011;67151;52.544;6.034;2023-04-07T00:58:11;1.9;;;1.1;;
77953;SDS011;67151;52.544;6.034;2023-04-07T00:58:24;2;;;1.2;;
77953;SDS011;67151;52.544;6.034;2023-04-07T00:58:39;2.3;;;1.3;;
77953;SDS011;67151;52.544;6.034;2023-04-07T00:58:54;2.5;;;1.3;;
77953;SDS011;67151;52.544;6.034;2023-04-07T00:59:09;2.8;;;1.3;;
77953;SDS011;67151;52.544;6.034;2023-04-07T00:59:24;2.4;;;1.4;;
77953;SDS011;67151;52.544;6.034;2023-04-07T00:59:39;1.6;;;1.3;;
77953;SDS011;67151;52.544;6.034;2023-04-07T00:59:54;1.8;;;1.2;;
77953;SDS011;67151;52.544;6.034;2023-04-07T01:00:10;2.3;;;1.1;;
77953;SDS011;67151;52.544;6.034;2023-04-07T01:00:24;2.7;;;1.2;;
77953;SDS011;67151;52.544;6.034;2023-04-07T01:00:40;2.5;;;1.5;;
77953;SDS011;67151;52.544;6.034;2023-04-07T01:00:56;1.9;;;1.4;;
77953;SDS011;67151;52.544;6.034;2023-04-07T01:01:11;1.8;;;1.3;;
77953;SDS011;67151;52.544;6.034;2023-04-07T01:01:25;2;;;1.3;;
77953;SDS011;67151;52.544;6.034;2023-04-07T01:01:42;2.2;;;1.3;;
77953;SDS011;67151;52.544;6.034;2023-04-07T01:01:57;2.7;;;1.1;;
77953;SDS011;67151;52.544;6.034;2023-04-07T01:02:10;2.5;;;1.2;;
77953;SDS011;67151;52.544;6.034;2023-04-07T01:02:26;2.2;;;1.2;;
77953;SDS011;67151;52.544;6.034;2023-04-07T01:02:40;2.3;;;1.2;;
77953;SDS011;67151;52.544;6.034;2023-04-07T01:02:56;2.5;;;1.2;;
77953;SDS011;67151;52.544;6.034;2023-04-07T01:03:11;2.8;;;1.2;;
77953;SDS011;67151;52.544;6.034;2023-04-07T01:03:27;2.8;;;1.3;;
77953;SDS011;67151;52.544;6.034;2023-04-07T01:03:44;2.7;;;1.2;;
77953;SDS011;67151;52.544;6.034;2023-04-07T01:03:56;2.4;;;1.2;;
77953;SDS011;67151;52.544;6.034;2023-04-07T01:04:11;2.1;;;1.3;;
77953;SDS011;67151;52.544;6.034;2023-04-07T01:04:25;2.3;;;1.3;;
77953;SDS011;67151;52.544;6.034;2023-04-07T01:04:42;2.3;;;1.3;;
77953;SDS011;67151;52.544;6.034;2023-04-07T01:04:55;2.4;;;1.3;;
77953;SDS011;67151;52.544;6.034;2023-04-07T01:05:12;2.2;;;1.2;;
77953;SDS011;67151;52.544;6.034;2023-04-07T01:05:25;3;;;1.5;;
77953;SDS011;67151;52.544;6.034;2023-04-07T01:05:41;3.2;;;1.4;;
77953;SDS011;67151;52.544;6.034;2023-04-07T01:05:56;2.1;;;1.2;;
77953;SDS011;67151;52.544;6.034;2023-04-07T01:06:09;1.6;;;1.2;;
77953;SDS011;67151;52.544;6.034;2023-04-07T01:06:25;2;;;1.1;;
77953;SDS011;67151;52.544;6.034;2023-04-07T01:06:42;2.2;;;1.1;;
77953;SDS011;67151;52.544;6.034;2023-04-07T01:06:56;2.3;;;1.2;;
77953;SDS011;67151;52.544;6.034;2023-04-07T01:07:10;2.6;;;1.3;;
77953;SDS011;67151;52.544;6.034;2023-04-07T01:07:26;2.2;;;1.2;;
77953;SDS011;67151;52.544;6.034;2023-04-07T01:07:43;2.3;;;1.2;;
77953;SDS011;67151;52.544;6.034;2023-04-07T01:07:57;2.5;;;1.2;;
77953;SDS011;67151;52.544;6.034;2023-04-07T01:08:11;1.9;;;1.1;;
77953;SDS011;67151;52.544;6.034;2023-04-07T01:08:26;1.9;;;1.1;;
77953;SDS011;67151;52.544;6.034;2023-04-07T01:08:41;2.8;;;1.2;;
77953;SDS011;67151;52.544;6.034;2023-04-07T01:08:56;2.8;;;1.1;;
77953;SDS011;67151;52.544;6.034;2023-04-07T01:09:12;2;;;1.1;;
77953;SDS011;67151;52.544;6.034;2023-04-07T01:09:26;2;;;1.2;;
77953;SDS011;67151;52.544;6.034;2023-04-07T01:09:40;1.8;;;1.1;;
77953;SDS011;67151;52.544;6.034;2023-04-07T01:09:57;1.5;;;1.1;;
77953;SDS011;67151;52.544;6.034;2023-04-07T01:10:11;1.7;;;1.2;;
77953;SDS011;67151;52.544;6.034;2023-04-07T01:10:26;2.4;;;1.3;;
77953;SDS011;67151;52.544;6.034;2023-04-07T01:10:40;2.5;;;1.4;;
77953;SDS011;67151;52.544;6.034;2023-04-07T01:10:55;2.2;;;1.2;;
77953;SDS011;67151;52.544;6.034;2023-04-07T01:11:11;2.4;;;1.2;;
77953;SDS011;67151;52.544;6.034;2023-04-07T01:11:30;2.9;;;1.4;;
77953;SDS011;67151;52.544;6.034;2023-04-07T01:11:41;2.2;;;1.2;;
77953;SDS011;67151;52.544;6.034;2023-04-07T01:11:56;2.4;;;1.2;;
77953;SDS011;67151;52.544;6.034;2023-04-07T01:12:11;2.9;;;1.3;;
77953;SDS011;67151;52.544;6.034;2023-04-07T01:12:27;3;;;1.3;;
77953;SDS011;67151;52.544;6.034;2023-04-07T01:12:51;3.2;;;1.3;;
77953;SDS011;67151;52.544;6.034;2023-04-07T01:12:56;2.6;;;1.4;;
77953;SDS011;67151;52.544;6.034;2023-04-07T01:13:11;2.5;;;1.3;;
77953;SDS011;67151;52.544;6.034;2023-04-07T01:13:26;2.6;;;1.3;;
77953;SDS011;67151;52.544;6.034;2023-04-07T01:13:41;2;;;1.1;;
77953;SDS011;67151;52.544;6.034;2023-04-07T01:13:54;2.3;;;1.1;;
77953;SDS011;67151;52.544;6.034;2023-04-07T01:14:10;2.8;;;1.3;;
77953;SDS011;67151;52.544;6.034;2023-04-07T01:14:24;2.4;;;1.3;;
77953;SDS011;67151;52.544;6.034;2023-04-07T01:14:40;2;;;1.1;;
77953;SDS011;67151;52.544;6.034;2023-04-07T01:14:57;2.1;;;1.2;;
77953;SDS011;67151;52.544;6.034;2023-04-07T01:15:10;2.1;;;1.2;;
77953;SDS011;67151;52.544;6.034;2023-04-07T01:15:24;2.7;;;1.3;;
77953;SDS011;67151;52.544;6.034;2023-04-07T01:15:39;2.9;;;1.3;;
77953;SDS011;67151;52.544;6.034;2023-04-07T01:15:54;2;;;1;;
77953;SDS011;67151;52.544;6.034;2023-04-07T01:16:10;2.2;;;1.1;;
77953;SDS011;67151;52.544;6.034;2023-04-07T01:16:26;2.1;;;1.2;;
77953;SDS011;67151;52.544;6.034;2023-04-07T01:16:41;1.8;;;1.2;;
77953;SDS011;67151;52.544;6.034;2023-04-07T01:16:54;1.8;;;1.2;;
77953;SDS011;67151;52.544;6.034;2023-04-07T01:17:09;2.1;;;1.2;;
77953;SDS011;67151;52.544;6.034;2023-04-07T01:17:24;2.2;;;1.2;;
77953;SDS011;67151;52.544;6.034;2023-04-07T01:17:41;3.1;;;1.4;;
77953;SDS011;67151;52.544;6.034;2023-04-07T01:17:57;3.1;;;1.4;;
77953;SDS011;67151;52.544;6.034;2023-04-07T01:18:12;2.5;;;1.3;;
77953;SDS011;67151;52.544;6.034;2023-04-07T01:18:25;2.7;;;1.2;;
77953;SDS011;67151;52.544;6.034;2023-04-07T01:18:39;2.3;;;1.1;;
77953;SDS011;67151;52.544;6.034;2023-04-07T01:18:56;1.9;;;1.1;;
77953;SDS011;67151;52.544;6.034;2023-04-07T01:19:12;1.8;;;1.2;;
77953;SDS011;67151;52.544;6.034;2023-04-07T01:19:29;2.2;;;1.1;;
77953;SDS011;67151;52.544;6.034;2023-04-07T01:19:41;2.6;;;1.1;;
77953;SDS011;67151;52.544;6.034;2023-04-07T01:19:55;2.5;;;1.1;;
77953;SDS011;67151;52.544;6.034;2023-04-07T01:20:10;2.6;;;1.2;;
77953;SDS011;67151;52.544;6.034;2023-04-07T01:20:24;3;;;1.5;;
77953;SDS011;67151;52.544;6.034;2023-04-07T01:20:39;2.4;;;1.4;;
77953;SDS011;67151;52.544;6.034;2023-04-07T01:20:55;2;;;1.3;;
77953;SDS011;67151;52.544;6.034;2023-04-07T01:21:10;2.2;;;1.2;;
77953;SDS011;67151;52.544;6.034;2023-04-07T01:21:25;2.4;;;1.1;;
77953;SDS011;67151;52.544;6.034;2023-04-07T01:21:39;2.6;;;1.3;;
77953;SDS011;67151;52.544;6.034;2023-04-07T01:21:55;2.6;;;1.4;;
77953;SDS011;67151;52.544;6.034;2023-04-07T01:22:11;2.2;;;1.3;;
77953;SDS011;67151;52.544;6.034;2023-04-07T01:22:25;2;;;1.2;;
77953;SDS011;67151;52.544;6.034;2023-04-07T01:22:40;2.1;;;1.2;;
77953;SDS011;67151;52.544;6.034;2023-04-07T01:22:55;2;;;1.2;;
77953;SDS011;67151;52.544;6.034;2023-04-07T01:23:09;1.7;;;1.2;;
77953;SDS011;67151;52.544;6.034;2023-04-07T01:23:27;3.1;;;1.3;;
77953;SDS011;67151;52.544;6.034;2023-04-07T01:23:48;3.1;;;1.4;;
77953;SDS011;67151;52.544;6.034;2023-04-07T01:24:07;1.7;;;1.2;;
77953;SDS011;67151;52.544;6.034;2023-04-07T01:24:16;1.7;;;1.2;;
77953;SDS011;67151;52.544;6.034;2023-04-07T01:24:30;1.7;;;1.1;;
77953;SDS011;67151;52.544;6.034;2023-04-07T01:24:45;1.7;;;1.1;;
77953;SDS011;67151;52.544;6.034;2023-04-07T01:25:06;1.8;;;1.2;;
77953;SDS011;67151;52.544;6.034;2023-04-07T01:25:17;1.9;;;1.2;;
77953;SDS011;67151;52.544;6.034;2023-04-07T01:25:26;1.8;;;1.2;;
77953;SDS011;67151;52.544;6.034;2023-04-07T01:25:59;3.3;;;1.1;;
77953;SDS011;67151;52.544;6.034;2023-04-07T01:26:15;3.3;;;1.2;;
77953;SDS011;67151;52.544;6.034;2023-04-07T01:26:16;2;;;1.1;;
77953;SDS011;67151;52.544;6.034;2023-04-07T01:26:25;1.9;;;1.2;;
77953;SDS011;67151;52.544;6.034;2023-04-07T01:26:39;1.7;;;1.1;;
77953;SDS011;67151;52.544;6.034;2023-04-07T01:26:55;2.3;;;1.3;;
77953;SDS011;67151;52.544;6.034;2023-04-07T01:27:13;2.3;;;1.2;;
77953;SDS011;67151;52.544;6.034;2023-04-07T01:27:32;2.1;;;1.2;;
77953;SDS011;67151;52.544;6.034;2023-04-07T01:27:41;2.6;;;1.2;;
77953;SDS011;67151;52.544;6.034;2023-04-07T01:27:58;2.2;;;1.2;;
77953;SDS011;67151;52.544;6.034;2023-04-07T01:28:13;1.6;;;1.1;;
77953;SDS011;67151;52.544;6.034;2023-04-07T01:28:33;1.9;;;1.2;;
77953;SDS011;67151;52.544;6.034;2023-04-07T01:28:43;1.9;;;1.2;;
77953;SDS011;67151;52.544;6.034;2023-04-07T01:28:56;1.9;;;1.2;;
77953;SDS011;67151;52.544;6.034;2023-04-07T01:29:26;1.7;;;1.1;;
77953;SDS011;67151;52.544;6.034;2023-04-07T01:29:26;1.8;;;1.1;;
77953;SDS011;67151;52.544;6.034;2023-04-07T01:29:40;2.3;;;1.1;;
77953;SDS011;67151;52.544;6.034;2023-04-07T01:29:54;2.3;;;1.1;;
77953;SDS011;67151;52.544;6.034;2023-04-07T01:30:10;2.1;;;1.3;;
77953;SDS011;67151;52.544;6.034;2023-04-07T01:30:25;2.1;;;1.3;;
77953;SDS011;67151;52.544;6.034;2023-04-07T01:30:39;2;;;1.2;;
77953;SDS011;67151;52.544;6.034;2023-04-07T01:30:54;2.2;;;1.2;;
77953;SDS011;67151;52.544;6.034;2023-04-07T01:31:10;2.3;;;1.3;;
77953;SDS011;67151;52.544;6.034;2023-04-07T01:31:25;2.4;;;1.4;;
77953;SDS011;67151;52.544;6.034;2023-04-07T01:31:40;2.3;;;1.2;;
77953;SDS011;67151;52.544;6.034;2023-04-07T01:31:54;1.9;;;1.1;;
77953;SDS011;67151;52.544;6.034;2023-04-07T01:32:09;1.7;;;1.1;;
77953;SDS011;67151;52.544;6.034;2023-04-07T01:32:25;1.6;;;1.1;;
77953;SDS011;67151;52.544;6.034;2023-04-07T01:32:41;1.8;;;1.1;;
77953;SDS011;67151;52.544;6.034;2023-04-07T01:32:54;2.2;;;1.1;;
77953;SDS011;67151;52.544;6.034;2023-04-07T01:33:09;2.1;;;1;;
77953;SDS011;67151;52.544;6.034;2023-04-07T01:33:24;1.9;;;1;;
77953;SDS011;67151;52.544;6.034;2023-04-07T01:33:39;1.6;;;1;;